sensor_id;sensor_type;location;lat;lon;timestamp;pressure;altitude;pressure_sealevel;temperature;humidity
58622;BME280;44389;51.578;5.456;2023-11-18T00:01:04;102232.44;;;2.47;100.00
58622;BME280;44389;51.578;5.456;2023-11-18T00:03:29;102229.88;;;2.47;100.00
58622;BME280;44389;51.578;5.456;2023-11-18T00:05:55;102231.03;;;2.51;100.00
58622;BME280;44389;51.578;5.456;2023-11-18T00:08:20;102238.50;;;2.49;100.00
58622;BME280;44389;51.578;5.456;2023-11-18T00:10:45;102238.41;;;2.47;100.00
58622;BME280;44389;51.578;5.456;2023-11-18T00:13:12;102235.72;;;2.36;100.00
58622;BME280;44389;51.578;5.456;2023-11-18T00:15:37;102236.22;;;2.42;100.00
58622;BME280;44389;51.578;5.456;2023-11-18T00:18:03;102237.13;;;2.42;100.00
58622;BME280;44389;51.578;5.456;2023-11-18T00:20:28;102231.16;;;2.42;100.00
58622;BME280;44389;51.578;5.456;2023-11-18T00:22:56;102227.56;;;2.40;100.00
58622;BME280;44389;51.578;5.456;2023-11-18T00:25:21;102227.19;;;2.35;100.00
58622;BME280;44389;51.578;5.456;2023-11-18T00:27:46;102230.72;;;2.27;100.00
58622;BME280;44389;51.578;5.456;2023-11-18T00:30:12;102225.00;;;2.29;100.00
58622;BME280;44389;51.578;5.456;2023-11-18T00:32:38;102225.38;;;2.24;100.00
58622;BME280;44389;51.578;5.456;2023-11-18T00:35:03;102226.78;;;2.30;100.00
58622;BME280;44389;51.578;5.456;2023-11-18T00:37:32;102226.91;;;2.32;100.00
58622;BME280;44389;51.578;5.456;2023-11-18T00:39:58;102228.28;;;2.28;100.00
58622;BME280;44389;51.578;5.456;2023-11-18T00:42:23;102227.28;;;2.16;100.00
58622;BME280;44389;51.578;5.456;2023-11-18T00:44:49;102228.53;;;2.11;100.00
58622;BME280;44389;51.578;5.456;2023-11-18T00:47:14;102216.34;;;2.17;100.00
58622;BME280;44389;51.578;5.456;2023-11-18T00:49:39;102217.22;;;2.18;100.00
58622;BME280;44389;51.578;5.456;2023-11-18T00:52:05;102217.72;;;2.13;100.00
58622;BME280;44389;51.578;5.456;2023-11-18T00:54:30;102221.91;;;2.13;100.00
58622;BME280;44389;51.578;5.456;2023-11-18T00:56:56;102227.91;;;2.13;100.00
58622;BME280;44389;51.578;5.456;2023-11-18T00:59:21;102222.81;;;2.13;100.00
58622;BME280;44389;51.578;5.456;2023-11-18T01:01:46;102228.00;;;2.05;100.00
58622;BME280;44389;51.578;5.456;2023-11-18T01:04:12;102224.56;;;2.04;100.00
58622;BME280;44389;51.578;5.456;2023-11-18T01:06:37;102225.53;;;1.96;100.00
58622;BME280;44389;51.578;5.456;2023-11-18T01:09:03;102232.00;;;1.92;100.00
58622;BME280;44389;51.578;5.456;2023-11-18T01:11:29;102229.75;;;1.95;100.00
58622;BME280;44389;51.578;5.456;2023-11-18T01:13:54;102237.38;;;1.95;100.00
58622;BME280;44389;51.578;5.456;2023-11-18T01:16:20;102234.53;;;1.92;100.00
58622;BME280;44389;51.578;5.456;2023-11-18T01:18:45;102233.28;;;1.97;100.00
58622;BME280;44389;51.578;5.456;2023-11-18T01:21:11;102238.03;;;2.03;100.00
58622;BME280;44389;51.578;5.456;2023-11-18T01:23:37;102245.78;;;2.05;100.00
58622;BME280;44389;51.578;5.456;2023-11-18T01:26:07;102239.44;;;2.10;100.00
58622;BME280;44389;51.578;5.456;2023-11-18T01:28:36;102244.53;;;2.10;100.00
58622;BME280;44389;51.578;5.456;2023-11-18T01:31:09;102243.03;;;2.12;100.00
58622;BME280;44389;51.578;5.456;2023-11-18T01:33:39;102241.00;;;2.18;100.00
58622;BME280;44389;51.578;5.456;2023-11-18T01:36:06;102237.06;;;2.22;100.00
58622;BME280;44389;51.578;5.456;2023-11-18T01:38:33;102236.72;;;2.27;100.00
58622;BME280;44389;51.578;5.456;2023-11-18T01:40:58;102238.75;;;2.32;100.00
58622;BME280;44389;51.578;5.456;2023-11-18T01:43:26;102237.75;;;2.40;100.00
58622;BME280;44389;51.578;5.456;2023-11-18T01:45:51;102232.44;;;2.47;100.00
58622;BME280;44389;51.578;5.456;2023-11-18T01:48:19;102231.69;;;2.58;100.00
58622;BME280;44389;51.578;5.456;2023-11-18T01:50:45;102224.28;;;2.61;100.00
58622;BME280;44389;51.578;5.456;2023-11-18T01:53:12;102233.97;;;2.66;100.00
58622;BME280;44389;51.578;5.456;2023-11-18T01:55:39;102233.09;;;2.75;100.00
58622;BME280;44389;51.578;5.456;2023-11-18T01:58:05;102240.34;;;2.71;100.00
58622;BME280;44389;51.578;5.456;2023-11-18T02:00:39;102245.31;;;2.69;100.00
58622;BME280;44389;51.578;5.456;2023-11-18T02:03:06;102244.28;;;2.67;100.00
58622;BME280;44389;51.578;5.456;2023-11-18T02:05:32;102241.09;;;2.70;100.00
58622;BME280;44389;51.578;5.456;2023-11-18T02:07:59;102233.72;;;2.73;100.00
58622;BME280;44389;51.578;5.456;2023-11-18T02:10:26;102241.88;;;2.69;100.00
58622;BME280;44389;51.578;5.456;2023-11-18T02:15:28;102235.25;;;2.71;100.00
58622;BME280;44389;51.578;5.456;2023-11-18T02:17:57;102229.63;;;2.75;100.00
58622;BME280;44389;51.578;5.456;2023-11-18T02:20:23;102229.16;;;2.79;100.00
58622;BME280;44389;51.578;5.456;2023-11-18T02:22:49;102237.16;;;2.84;100.00
58622;BME280;44389;51.578;5.456;2023-11-18T02:25:16;102239.34;;;2.89;100.00
58622;BME280;44389;51.578;5.456;2023-11-18T02:27:43;102249.78;;;2.92;100.00
58622;BME280;44389;51.578;5.456;2023-11-18T02:30:08;102244.56;;;2.91;100.00
58622;BME280;44389;51.578;5.456;2023-11-18T02:32:57;102261.22;;;2.97;100.00
58622;BME280;44389;51.578;5.456;2023-11-18T02:35:30;102258.56;;;2.96;100.00
58622;BME280;44389;51.578;5.456;2023-11-18T02:38:00;102246.81;;;2.98;100.00
58622;BME280;44389;51.578;5.456;2023-11-18T02:40:35;102253.06;;;3.02;100.00
58622;BME280;44389;51.578;5.456;2023-11-18T02:43:02;102242.88;;;3.02;100.00
58622;BME280;44389;51.578;5.456;2023-11-18T02:45:31;102241.63;;;3.07;100.00
58622;BME280;44389;51.578;5.456;2023-11-18T02:47:57;102238.94;;;3.05;100.00
58622;BME280;44389;51.578;5.456;2023-11-18T02:50:26;102235.75;;;2.97;100.00
58622;BME280;44389;51.578;5.456;2023-11-18T02:52:53;102220.25;;;2.94;100.00
58622;BME280;44389;51.578;5.456;2023-11-18T02:55:19;102218.97;;;3.00;100.00
58622;BME280;44389;51.578;5.456;2023-11-18T02:57:46;102210.81;;;2.93;100.00
58622;BME280;44389;51.578;5.456;2023-11-18T03:00:12;102212.09;;;2.99;100.00
58622;BME280;44389;51.578;5.456;2023-11-18T03:02:43;102196.28;;;2.92;100.00
58622;BME280;44389;51.578;5.456;2023-11-18T03:05:08;102201.78;;;2.97;100.00
58622;BME280;44389;51.578;5.456;2023-11-18T03:07:40;102202.91;;;3.01;100.00
58622;BME280;44389;51.578;5.456;2023-11-18T03:10:06;102197.81;;;3.01;100.00
58622;BME280;44389;51.578;5.456;2023-11-18T03:12:36;102191.31;;;3.04;100.00
58622;BME280;44389;51.578;5.456;2023-11-18T03:15:04;102193.97;;;3.06;100.00
58622;BME280;44389;51.578;5.456;2023-11-18T03:17:30;102191.31;;;3.04;100.00
58622;BME280;44389;51.578;5.456;2023-11-18T03:19:55;102197.03;;;3.12;100.00
58622;BME280;44389;51.578;5.456;2023-11-18T03:22:21;102203.94;;;3.03;100.00
58622;BME280;44389;51.578;5.456;2023-11-18T03:24:46;102209.13;;;3.04;100.00
58622;BME280;44389;51.578;5.456;2023-11-18T03:27:11;102210.28;;;3.08;100.00
58622;BME280;44389;51.578;5.456;2023-11-18T03:29:37;102203.03;;;3.02;100.00
58622;BME280;44389;51.578;5.456;2023-11-18T03:32:02;102205.72;;;3.04;100.00
58622;BME280;44389;51.578;5.456;2023-11-18T03:34:30;102209.13;;;3.15;100.00
58622;BME280;44389;51.578;5.456;2023-11-18T03:36:55;102201.78;;;3.07;100.00
58622;BME280;44389;51.578;5.456;2023-11-18T03:39:22;102203.16;;;3.14;100.00
58622;BME280;44389;51.578;5.456;2023-11-18T03:41:47;102193.19;;;3.17;100.00
58622;BME280;44389;51.578;5.456;2023-11-18T03:44:13;102186.81;;;3.22;100.00
58622;BME280;44389;51.578;5.456;2023-11-18T03:46:38;102185.31;;;3.24;100.00
58622;BME280;44389;51.578;5.456;2023-11-18T03:49:03;102182.00;;;3.25;100.00
58622;BME280;44389;51.578;5.456;2023-11-18T03:51:29;102157.53;;;3.17;100.00
58622;BME280;44389;51.578;5.456;2023-11-18T03:53:54;102157.53;;;3.17;100.00
58622;BME280;44389;51.578;5.456;2023-11-18T03:56:20;102155.91;;;3.18;100.00
58622;BME280;44389;51.578;5.456;2023-11-18T03:58:46;102148.25;;;3.18;100.00
58622;BME280;44389;51.578;5.456;2023-11-18T04:01:24;102147.09;;;3.14;100.00
58622;BME280;44389;51.578;5.456;2023-11-18T04:03:53;102145.09;;;3.10;100.00
58622;BME280;44389;51.578;5.456;2023-11-18T04:06:19;102128.25;;;3.12;100.00
58622;BME280;44389;51.578;5.456;2023-11-18T04:08:46;102115.91;;;3.06;100.00
58622;BME280;44389;51.578;5.456;2023-11-18T04:11:13;102124.22;;;3.04;100.00
58622;BME280;44389;51.578;5.456;2023-11-18T04:13:39;102122.91;;;3.09;100.00
58622;BME280;44389;51.578;5.456;2023-11-18T04:16:05;102125.97;;;3.15;100.00
58622;BME280;44389;51.578;5.456;2023-11-18T04:18:31;102128.50;;;3.15;100.00
58622;BME280;44389;51.578;5.456;2023-11-18T04:20:56;102125.97;;;3.15;100.00
58622;BME280;44389;51.578;5.456;2023-11-18T04:23:23;102131.28;;;3.18;100.00
58622;BME280;44389;51.578;5.456;2023-11-18T04:25:48;102130.53;;;3.19;100.00
58622;BME280;44389;51.578;5.456;2023-11-18T04:28:15;102117.28;;;3.23;100.00
58622;BME280;44389;51.578;5.456;2023-11-18T04:30:40;102112.94;;;3.22;100.00
58622;BME280;44389;51.578;5.456;2023-11-18T04:33:05;102115.75;;;3.25;100.00
58622;BME280;44389;51.578;5.456;2023-11-18T04:35:31;102107.31;;;3.26;100.00
58622;BME280;44389;51.578;5.456;2023-11-18T04:37:57;102109.84;;;3.26;100.00
58622;BME280;44389;51.578;5.456;2023-11-18T04:40:22;102114.31;;;3.29;100.00
58622;BME280;44389;51.578;5.456;2023-11-18T04:42:48;102102.22;;;3.26;100.00
58622;BME280;44389;51.578;5.456;2023-11-18T04:45:13;102091.25;;;3.27;100.00
58622;BME280;44389;51.578;5.456;2023-11-18T04:47:39;102090.50;;;3.28;100.00
58622;BME280;44389;51.578;5.456;2023-11-18T04:50:06;102089.72;;;3.29;100.00
58622;BME280;44389;51.578;5.456;2023-11-18T04:52:33;102095.81;;;3.32;100.00
58622;BME280;44389;51.578;5.456;2023-11-18T04:55:00;102093.28;;;3.32;100.00
58622;BME280;44389;51.578;5.456;2023-11-18T04:57:25;102084.97;;;3.34;100.00
58622;BME280;44389;51.578;5.456;2023-11-18T04:59:50;102084.09;;;3.34;100.00
58622;BME280;44389;51.578;5.456;2023-11-18T05:02:15;102076.69;;;3.37;100.00
58622;BME280;44389;51.578;5.456;2023-11-18T05:04:41;102072.63;;;3.39;100.00
58622;BME280;44389;51.578;5.456;2023-11-18T05:07:06;102068.28;;;3.38;100.00
58622;BME280;44389;51.578;5.456;2023-11-18T05:09:31;102067.75;;;3.42;100.00
58622;BME280;44389;51.578;5.456;2023-11-18T05:11:58;102069.53;;;3.43;100.00
58622;BME280;44389;51.578;5.456;2023-11-18T05:14:23;102060.34;;;3.45;100.00
58622;BME280;44389;51.578;5.456;2023-11-18T05:16:49;102063.78;;;3.45;100.00
58622;BME280;44389;51.578;5.456;2023-11-18T05:19:14;102054.50;;;3.46;100.00
58622;BME280;44389;51.578;5.456;2023-11-18T05:21:39;102052.16;;;3.49;100.00
58622;BME280;44389;51.578;5.456;2023-11-18T05:24:05;102047.84;;;3.48;100.00
58622;BME280;44389;51.578;5.456;2023-11-18T05:26:30;102044.53;;;3.49;100.00
58622;BME280;44389;51.578;5.456;2023-11-18T05:28:55;102046.53;;;3.53;100.00
58622;BME280;44389;51.578;5.456;2023-11-18T05:31:21;102045.66;;;3.53;100.00
58622;BME280;44389;51.578;5.456;2023-11-18T05:33:46;102046.53;;;3.53;100.00
58622;BME280;44389;51.578;5.456;2023-11-18T05:36:17;102049.19;;;3.55;100.00
58622;BME280;44389;51.578;5.456;2023-11-18T05:38:42;102042.47;;;3.55;100.00
58622;BME280;44389;51.578;5.456;2023-11-18T05:41:08;102046.75;;;3.56;100.00
58622;BME280;44389;51.578;5.456;2023-11-18T05:43:41;102052.88;;;3.58;100.00
58622;BME280;44389;51.578;5.456;2023-11-18T05:46:07;102040.91;;;3.57;100.00
58622;BME280;44389;51.578;5.456;2023-11-18T05:48:50;102022.28;;;3.58;100.00
58622;BME280;44389;51.578;5.456;2023-11-18T05:51:24;102030.81;;;3.59;100.00
58622;BME280;44389;51.578;5.456;2023-11-18T05:53:50;102018.22;;;3.60;100.00
58622;BME280;44389;51.578;5.456;2023-11-18T05:56:17;102024.28;;;3.62;100.00
58622;BME280;44389;51.578;5.456;2023-11-18T05:58:42;102023.53;;;3.63;100.00
58622;BME280;44389;51.578;5.456;2023-11-18T06:01:12;102029.66;;;3.66;100.00
58622;BME280;44389;51.578;5.456;2023-11-18T06:03:38;102025.31;;;3.65;100.00
58622;BME280;44389;51.578;5.456;2023-11-18T06:06:11;102015.34;;;3.68;100.00
58622;BME280;44389;51.578;5.456;2023-11-18T06:08:38;102008.59;;;3.68;100.00
58622;BME280;44389;51.578;5.456;2023-11-18T06:11:09;101996.72;;;3.69;100.00
58622;BME280;44389;51.578;5.456;2023-11-18T06:13:45;101992.50;;;3.69;100.00
58622;BME280;44389;51.578;5.456;2023-11-18T06:18:45;101995.19;;;3.71;100.00
58622;BME280;44389;51.578;5.456;2023-11-18T06:21:12;102008.94;;;3.73;100.00
58622;BME280;44389;51.578;5.456;2023-11-18T06:23:38;102026.78;;;3.73;100.00
58622;BME280;44389;51.578;5.456;2023-11-18T06:26:03;102030.34;;;3.75;100.00
58622;BME280;44389;51.578;5.456;2023-11-18T06:28:29;102018.59;;;3.77;100.00
58622;BME280;44389;51.578;5.456;2023-11-18T06:30:54;102017.94;;;3.79;100.00
58622;BME280;44389;51.578;5.456;2023-11-18T06:33:20;102000.97;;;3.80;100.00
58622;BME280;44389;51.578;5.456;2023-11-18T06:35:48;102001.69;;;3.89;100.00
58622;BME280;44389;51.578;5.456;2023-11-18T06:38:13;101992.56;;;3.81;100.00
58622;BME280;44389;51.578;5.456;2023-11-18T06:40:39;102000.22;;;3.81;100.00
58622;BME280;44389;51.578;5.456;2023-11-18T06:43:04;102000.31;;;3.83;100.00
58622;BME280;44389;51.578;5.456;2023-11-18T06:45:36;102007.06;;;3.82;100.00
58622;BME280;44389;51.578;5.456;2023-11-18T06:48:05;101993.66;;;3.85;100.00
58622;BME280;44389;51.578;5.456;2023-11-18T06:50:31;101989.47;;;3.85;100.00
58622;BME280;44389;51.578;5.456;2023-11-18T06:52:57;101991.25;;;3.86;100.00
58622;BME280;44389;51.578;5.456;2023-11-18T06:55:23;101984.59;;;3.88;100.00
58622;BME280;44389;51.578;5.456;2023-11-18T06:57:51;101984.59;;;3.88;100.00
58622;BME280;44389;51.578;5.456;2023-11-18T07:00:17;101985.59;;;3.90;100.00
58622;BME280;44389;51.578;5.456;2023-11-18T07:02:42;101979.72;;;3.91;100.00
58622;BME280;44389;51.578;5.456;2023-11-18T07:05:08;101978.06;;;3.92;100.00
58622;BME280;44389;51.578;5.456;2023-11-18T07:07:34;101979.94;;;3.94;100.00
58622;BME280;44389;51.578;5.456;2023-11-18T07:09:59;101979.19;;;3.95;100.00
58622;BME280;44389;51.578;5.456;2023-11-18T07:12:25;101974.09;;;3.95;100.00
58622;BME280;44389;51.578;5.456;2023-11-18T07:14:50;101976.75;;;3.97;100.00
58622;BME280;44389;51.578;5.456;2023-11-18T07:17:15;101979.41;;;3.99;100.00
58622;BME280;44389;51.578;5.456;2023-11-18T07:19:44;101981.28;;;4.01;100.00
58622;BME280;44389;51.578;5.456;2023-11-18T07:22:10;101981.28;;;4.01;100.00
58622;BME280;44389;51.578;5.456;2023-11-18T07:24:35;101972.97;;;4.04;100.00
58622;BME280;44389;51.578;5.456;2023-11-18T07:27:01;101968.78;;;4.04;100.00
58622;BME280;44389;51.578;5.456;2023-11-18T07:29:26;101983.28;;;4.05;100.00
58622;BME280;44389;51.578;5.456;2023-11-18T07:31:52;101992.84;;;4.08;100.00
58622;BME280;44389;51.578;5.456;2023-11-18T07:34:22;101988.75;;;4.10;100.00
58622;BME280;44389;51.578;5.456;2023-11-18T07:36:49;101979.56;;;4.12;100.00
58622;BME280;44389;51.578;5.456;2023-11-18T07:39:15;101983.84;;;4.13;100.00
58622;BME280;44389;51.578;5.456;2023-11-18T07:41:49;102001.06;;;4.16;100.00
58622;BME280;44389;51.578;5.456;2023-11-18T07:44:14;101993.53;;;4.17;100.00
58622;BME280;44389;51.578;5.456;2023-11-18T07:46:41;101991.97;;;4.19;100.00
58622;BME280;44389;51.578;5.456;2023-11-18T07:49:07;101998.19;;;4.23;100.00
58622;BME280;44389;51.578;5.456;2023-11-18T07:51:33;101995.75;;;4.24;100.00
58622;BME280;44389;51.578;5.456;2023-11-18T07:53:58;102001.09;;;4.27;100.00
58622;BME280;44389;51.578;5.456;2023-11-18T07:56:23;101997.75;;;4.28;100.00
58622;BME280;44389;51.578;5.456;2023-11-18T07:58:49;101997.09;;;4.31;100.00
58622;BME280;44389;51.578;5.456;2023-11-18T08:01:15;102000.00;;;4.36;100.00
58622;BME280;44389;51.578;5.456;2023-11-18T08:03:43;102002.66;;;4.37;100.00
58622;BME280;44389;51.578;5.456;2023-11-18T08:06:10;102007.09;;;4.40;100.00
58622;BME280;44389;51.578;5.456;2023-11-18T08:08:36;101998.88;;;4.44;100.00
58622;BME280;44389;51.578;5.456;2023-11-18T08:11:06;102004.22;;;4.47;100.00
58622;BME280;44389;51.578;5.456;2023-11-18T08:13:32;102001.09;;;4.51;100.00
58622;BME280;44389;51.578;5.456;2023-11-18T08:15:58;101996.22;;;4.54;100.00
58622;BME280;44389;51.578;5.456;2023-11-18T08:18:23;101984.66;;;4.59;100.00
58622;BME280;44389;51.578;5.456;2023-11-18T08:20:49;101982.34;;;4.63;100.00
58622;BME280;44389;51.578;5.456;2023-11-18T08:23:15;101974.22;;;4.68;100.00
58622;BME280;44389;51.578;5.456;2023-11-18T08:25:40;101977.91;;;4.72;100.00
58622;BME280;44389;51.578;5.456;2023-11-18T08:28:07;101978.00;;;4.73;100.00
58622;BME280;44389;51.578;5.456;2023-11-18T08:30:41;101988.47;;;4.76;100.00
58622;BME280;44389;51.578;5.456;2023-11-18T08:33:07;101992.91;;;4.79;100.00
58622;BME280;44389;51.578;5.456;2023-11-18T08:35:35;101979.47;;;4.82;100.00
58622;BME280;44389;51.578;5.456;2023-11-18T08:38:00;101972.00;;;4.85;100.00
58622;BME280;44389;51.578;5.456;2023-11-18T08:40:26;101964.44;;;4.86;100.00
58622;BME280;44389;51.578;5.456;2023-11-18T08:42:53;101961.13;;;4.87;100.00
58622;BME280;44389;51.578;5.456;2023-11-18T08:45:22;101949.34;;;4.89;100.00
58622;BME280;44389;51.578;5.456;2023-11-18T08:47:52;101946.22;;;4.93;100.00
58622;BME280;44389;51.578;5.456;2023-11-18T08:50:18;101948.97;;;4.97;100.00
58622;BME280;44389;51.578;5.456;2023-11-18T08:52:44;101945.75;;;4.99;100.00
58622;BME280;44389;51.578;5.456;2023-11-18T08:55:15;101944.19;;;5.01;100.00
58622;BME280;44389;51.578;5.456;2023-11-18T08:58:08;101931.63;;;5.04;100.00
58622;BME280;44389;51.578;5.456;2023-11-18T09:00:56;101925.75;;;5.05;100.00
58622;BME280;44389;51.578;5.456;2023-11-18T09:03:30;101927.81;;;5.11;100.00
58622;BME280;44389;51.578;5.456;2023-11-18T09:06:03;101926.28;;;5.13;100.00
58622;BME280;44389;51.578;5.456;2023-11-18T09:08:37;101924.72;;;5.15;100.00
58622;BME280;44389;51.578;5.456;2023-11-18T09:11:09;101917.94;;;5.16;100.00
58622;BME280;44389;51.578;5.456;2023-11-18T09:13:36;101918.81;;;5.16;100.00
58622;BME280;44389;51.578;5.456;2023-11-18T09:16:05;101912.81;;;5.16;100.00
58622;BME280;44389;51.578;5.456;2023-11-18T09:18:39;101918.03;;;5.17;100.00
58622;BME280;44389;51.578;5.456;2023-11-18T09:21:05;101906.03;;;5.16;100.00
58622;BME280;44389;51.578;5.456;2023-11-18T09:23:32;101897.50;;;5.16;100.00
58622;BME280;44389;51.578;5.456;2023-11-18T09:26:02;101892.38;;;5.16;100.00
58622;BME280;44389;51.578;5.456;2023-11-18T09:28:32;101891.50;;;5.15;100.00
58622;BME280;44389;51.578;5.456;2023-11-18T09:31:00;101885.50;;;5.15;100.00
58622;BME280;44389;51.578;5.456;2023-11-18T09:33:28;101873.22;;;5.22;100.00
58622;BME280;44389;51.578;5.456;2023-11-18T09:35:58;101874.38;;;5.14;100.00
58622;BME280;44389;51.578;5.456;2023-11-18T09:38:29;101867.50;;;5.13;100.00
58622;BME280;44389;51.578;5.456;2023-11-18T09:40:59;101865.94;;;5.15;100.00
58622;BME280;44389;51.578;5.456;2023-11-18T09:43:31;101860.84;;;5.15;100.00
58622;BME280;44389;51.578;5.456;2023-11-18T09:46:17;101858.38;;;5.17;100.00
58622;BME280;44389;51.578;5.456;2023-11-18T09:48:48;101844.81;;;5.18;100.00
58622;BME280;44389;51.578;5.456;2023-11-18T09:51:23;101841.69;;;5.22;100.00
58622;BME280;44389;51.578;5.456;2023-11-18T09:53:53;101853.00;;;5.25;100.00
58622;BME280;44389;51.578;5.456;2023-11-18T09:56:25;101854.97;;;5.30;100.00
58622;BME280;44389;51.578;5.456;2023-11-18T09:59:07;101854.31;;;5.32;100.00
58622;BME280;44389;51.578;5.456;2023-11-18T10:01:42;101853.72;;;5.36;100.00
58622;BME280;44389;51.578;5.456;2023-11-18T10:04:09;101836.69;;;5.37;100.00
58622;BME280;44389;51.578;5.456;2023-11-18T10:06:36;101836.00;;;5.39;100.00
58622;BME280;44389;51.578;5.456;2023-11-18T10:09:03;101838.31;;;5.48;100.00
58622;BME280;44389;51.578;5.456;2023-11-18T10:11:41;101828.44;;;5.41;100.00
58622;BME280;44389;51.578;5.456;2023-11-18T10:14:07;101825.31;;;5.45;100.00
58622;BME280;44389;51.578;5.456;2023-11-18T10:16:34;101808.41;;;5.47;100.00
58622;BME280;44389;51.578;5.456;2023-11-18T10:18:59;101810.38;;;5.51;100.00
58622;BME280;44389;51.578;5.456;2023-11-18T10:21:34;101809.69;;;5.54;100.00
58622;BME280;44389;51.578;5.456;2023-11-18T10:24:05;101810.59;;;5.54;100.00
58622;BME280;44389;51.578;5.456;2023-11-18T10:26:35;101807.44;;;5.58;100.00
58622;BME280;44389;51.578;5.456;2023-11-18T10:29:03;101796.94;;;5.67;100.00
58622;BME280;44389;51.578;5.456;2023-11-18T10:31:33;101801.13;;;5.67;100.00
58622;BME280;44389;51.578;5.456;2023-11-18T10:34:00;101805.47;;;5.68;100.00
58622;BME280;44389;51.578;5.456;2023-11-18T10:36:26;101786.97;;;5.72;100.00
58622;BME280;44389;51.578;5.456;2023-11-18T10:38:52;101777.75;;;5.74;100.00
58622;BME280;44389;51.578;5.456;2023-11-18T10:41:21;101783.03;;;5.77;100.00
58622;BME280;44389;51.578;5.456;2023-11-18T10:43:46;101783.25;;;5.80;100.00
58622;BME280;44389;51.578;5.456;2023-11-18T10:46:14;101783.53;;;5.85;100.00
58622;BME280;44389;51.578;5.456;2023-11-18T10:48:48;101764.94;;;5.87;100.00
58622;BME280;44389;51.578;5.456;2023-11-18T10:51:19;101767.78;;;5.92;100.00
58622;BME280;44389;51.578;5.456;2023-11-18T10:53:50;101770.66;;;5.97;100.00
58622;BME280;44389;51.578;5.456;2023-11-18T10:56:23;101775.13;;;5.99;100.00
58622;BME280;44389;51.578;5.456;2023-11-18T10:58:56;101767.72;;;6.04;100.00
58622;BME280;44389;51.578;5.456;2023-11-18T11:03:54;101775.69;;;6.08;100.00
58622;BME280;44389;51.578;5.456;2023-11-18T11:06:26;101774.78;;;6.08;100.00
58622;BME280;44389;51.578;5.456;2023-11-18T11:08:56;101765.53;;;6.10;100.00
58622;BME280;44389;51.578;5.456;2023-11-18T11:11:25;101753.81;;;6.14;100.00
58622;BME280;44389;51.578;5.456;2023-11-18T11:13:57;101739.34;;;6.14;100.00
58622;BME280;44389;51.578;5.456;2023-11-18T11:16:25;101732.44;;;6.13;100.00
58622;BME280;44389;51.578;5.456;2023-11-18T11:18:55;101738.66;;;6.17;100.00
58622;BME280;44389;51.578;5.456;2023-11-18T11:21:25;101729.31;;;6.17;100.00
58622;BME280;44389;51.578;5.456;2023-11-18T11:23:55;101722.59;;;6.19;100.00
58622;BME280;44389;51.578;5.456;2023-11-18T11:29:07;101702.13;;;6.19;100.00
58622;BME280;44389;51.578;5.456;2023-11-18T11:31:39;101685.19;;;6.21;100.00
58622;BME280;44389;51.578;5.456;2023-11-18T11:34:19;101669.91;;;6.23;100.00
58622;BME280;44389;51.578;5.456;2023-11-18T11:36:49;101661.53;;;6.25;100.00
58622;BME280;44389;51.578;5.456;2023-11-18T11:39:17;101652.09;;;6.24;100.00
58622;BME280;44389;51.578;5.456;2023-11-18T11:41:56;101635.16;;;6.26;100.00
58622;BME280;44389;51.578;5.456;2023-11-18T11:44:22;101619.00;;;6.28;100.00
58622;BME280;44389;51.578;5.456;2023-11-18T11:46:54;101613.06;;;6.29;100.00
58622;BME280;44389;51.578;5.456;2023-11-18T11:49:22;101614.06;;;6.31;100.00
58622;BME280;44389;51.578;5.456;2023-11-18T11:54:35;101603.28;;;6.36;100.00
58622;BME280;44389;51.578;5.456;2023-11-18T11:57:03;101582.09;;;6.39;100.00
58622;BME280;44389;51.578;5.456;2023-11-18T12:02:09;101572.06;;;6.42;100.00
58622;BME280;44389;51.578;5.456;2023-11-18T12:04:35;101553.34;;;6.43;100.00
58622;BME280;44389;51.578;5.456;2023-11-18T12:07:04;101541.41;;;6.43;100.00
58622;BME280;44389;51.578;5.456;2023-11-18T12:09:31;101539.72;;;6.44;100.00
58622;BME280;44389;51.578;5.456;2023-11-18T12:12:03;101529.47;;;6.44;100.00
58622;BME280;44389;51.578;5.456;2023-11-18T12:14:30;101527.91;;;6.46;100.00
58622;BME280;44389;51.578;5.456;2023-11-18T12:17:09;101534.78;;;6.47;100.00
58622;BME280;44389;51.578;5.456;2023-11-18T12:19:46;101525.34;;;6.46;100.00
58622;BME280;44389;51.578;5.456;2023-11-18T12:22:20;101515.16;;;6.48;100.00
58622;BME280;44389;51.578;5.456;2023-11-18T12:27:42;101500.16;;;6.54;100.00
58622;BME280;44389;51.578;5.456;2023-11-18T12:41:35;101482.31;;;6.55;100.00
58622;BME280;44389;51.578;5.456;2023-11-18T12:44:28;101471.28;;;6.56;100.00
58622;BME280;44389;51.578;5.456;2023-11-18T12:47:00;101452.22;;;6.51;100.00
58622;BME280;44389;51.578;5.456;2023-11-18T12:49:40;101435.28;;;6.53;100.00
58622;BME280;44389;51.578;5.456;2023-11-18T12:52:10;101411.31;;;6.53;100.00
58622;BME280;44389;51.578;5.456;2023-11-18T12:54:36;101398.59;;;6.54;100.00
58622;BME280;44389;51.578;5.456;2023-11-18T12:57:03;101382.50;;;6.57;100.00
58622;BME280;44389;51.578;5.456;2023-11-18T12:59:35;101376.38;;;6.53;100.00
58622;BME280;44389;51.578;5.456;2023-11-18T13:02:01;101373.97;;;6.56;100.00
58622;BME280;44389;51.578;5.456;2023-11-18T13:04:30;101374.69;;;6.54;100.00
58622;BME280;44389;51.578;5.456;2023-11-18T13:06:56;101366.13;;;6.53;100.00
58622;BME280;44389;51.578;5.456;2023-11-18T13:09:23;101361.00;;;6.53;100.00
58622;BME280;44389;51.578;5.456;2023-11-18T13:11:57;101348.19;;;6.53;100.00
58622;BME280;44389;51.578;5.456;2023-11-18T13:14:27;101374.59;;;6.52;100.00
58622;BME280;44389;51.578;5.456;2023-11-18T13:16:54;101359.16;;;6.51;100.00
58622;BME280;44389;51.578;5.456;2023-11-18T13:19:29;101325.03;;;6.52;100.00
58622;BME280;44389;51.578;5.456;2023-11-18T13:22:02;101335.22;;;6.50;100.00
58622;BME280;44389;51.578;5.456;2023-11-18T13:24:30;101341.13;;;6.49;100.00